Time;durP1;ratioP1;P1;durP2;ratioP2;P2;SDS_P1;SDS_P2;PMS_P1;PMS_P2;Temp;Humidity;BMP_temperature;BMP_pressure;BME280_temperature;BME280_humidity;BME280_pressure;Samples;Min_cycle;Max_cycle;Signal;HPM_P1;HPM_P2
2023/06/11 00:00:29;;;;;;;8.33;7.73;;;19.20;99.90;;;;;;5030997;28;20206;-58
2023/06/11 00:02:56;;;;;;;7.67;7.00;;;19.20;99.90;;;;;;5030231;28;20199;-58
2023/06/11 00:05:27;;;;;;;7.10;6.60;;;19.10;99.90;;;;;;5031385;28;20195;-58
2023/06/11 00:08:00;;;;;;;6.93;6.50;;;19.10;99.90;;;;;;5029761;28;20968;-57
2023/06/11 00:10:27;;;;;;;6.77;6.40;;;19.10;99.90;;;;;;5025812;28;20221;-57
2023/06/11 00:12:54;;;;;;;8.07;7.57;;;19.00;99.90;;;;;;5030682;28;20273;-58
2023/06/11 00:15:21;;;;;;;6.50;6.00;;;19.00;99.90;;;;;;5031440;28;20260;-58
2023/06/11 00:17:49;;;;;;;7.83;7.33;;;19.00;99.90;;;;;;5031095;28;20212;-58
2023/06/11 00:20:16;;;;;;;6.80;6.40;;;18.90;99.90;;;;;;5028593;28;20261;-57
2023/06/11 00:22:43;;;;;;;6.23;5.83;;;19.00;99.90;;;;;;5028515;28;20203;-59
2023/06/11 00:25:11;;;;;;;7.10;6.60;;;19.00;99.90;;;;;;5027773;28;20257;-58
2023/06/11 00:27:39;;;;;;;6.87;6.47;;;19.00;99.90;;;;;;5031087;28;20194;-57
2023/06/11 00:30:07;;;;;;;6.30;5.97;;;18.90;99.90;;;;;;5031925;28;20253;-58
2023/06/11 00:32:35;;;;;;;6.67;6.37;;;18.90;99.90;;;;;;5029418;28;20222;-58
2023/06/11 00:35:06;;;;;;;6.93;6.53;;;19.00;99.90;;;;;;5030892;28;20218;-58
2023/06/11 00:37:34;;;;;;;6.50;6.10;;;18.90;99.90;;;;;;5030303;28;20210;-58
2023/06/11 00:40:01;;;;;;;6.37;6.07;;;19.00;99.90;;;;;;5030898;28;20256;-57
2023/06/11 00:42:28;;;;;;;6.30;5.90;;;19.00;99.90;;;;;;5029635;28;20582;-58
2023/06/11 00:44:55;;;;;;;8.70;8.10;;;19.00;99.90;;;;;;5029019;28;20219;-57
2023/06/11 00:47:22;;;;;;;7.70;7.13;;;19.00;99.90;;;;;;5030921;28;20202;-58
2023/06/11 00:49:50;;;;;;;8.80;8.30;;;19.00;99.90;;;;;;5030887;28;20265;-58
2023/06/11 00:52:21;;;;;;;7.53;7.13;;;19.10;99.90;;;;;;5029601;28;20254;-57
2023/06/11 00:54:48;;;;;;;7.70;7.17;;;19.00;99.90;;;;;;5035504;28;20222;-59
2023/06/11 00:57:22;;;;;;;8.60;7.97;;;18.90;99.90;;;;;;5038581;28;20195;-57
2023/06/11 00:59:50;;;;;;;8.47;7.87;;;18.90;99.90;;;;;;5034648;28;20225;-58
2023/06/11 01:02:23;;;;;;;8.00;7.50;;;18.90;99.90;;;;;;5031618;28;20696;-58
2023/06/11 01:04:53;;;;;;;8.93;8.33;;;18.90;99.90;;;;;;5026635;28;20214;-57
2023/06/11 01:07:22;;;;;;;9.53;8.93;;;18.80;99.90;;;;;;5022737;28;20242;-58
2023/06/11 01:09:50;;;;;;;8.97;8.17;;;18.70;99.90;;;;;;5034167;28;20206;-58
2023/06/11 01:12:21;;;;;;;8.77;8.17;;;18.60;99.90;;;;;;5034014;28;20221;-57
2023/06/11 01:14:48;;;;;;;8.73;8.20;;;18.60;99.90;;;;;;5034592;28;20225;-57
2023/06/11 01:17:23;;;;;;;8.63;8.13;;;18.50;99.90;;;;;;5032822;28;21588;-57
2023/06/11 01:20:13;;;;;;;8.70;8.00;;;18.50;99.90;;;;;;5033883;28;20285;-57
2023/06/11 01:23:13;;;;;;;10.30;9.57;;;18.40;99.90;;;;;;5033299;28;20230;-57
2023/06/11 01:25:50;;;;;;;8.97;8.33;;;18.40;99.90;;;;;;5023553;28;20234;-58
2023/06/11 01:28:21;;;;;;;11.23;10.23;;;18.40;99.90;;;;;;5034082;28;20268;-57
2023/06/11 01:30:50;;;;;;;10.40;9.60;;;18.30;99.90;;;;;;5024802;28;20203;-57
2023/06/11 01:33:19;;;;;;;10.07;9.37;;;18.20;99.90;;;;;;5033618;28;20268;-58
2023/06/11 01:35:48;;;;;;;9.70;8.90;;;18.20;99.90;;;;;;5033360;28;20234;-57
2023/06/11 01:38:15;;;;;;;11.90;10.90;;;18.20;99.90;;;;;;5033256;28;20579;-58
2023/06/11 01:40:42;;;;;;;11.37;10.47;;;18.20;99.90;;;;;;5033892;28;20668;-57
2023/06/11 01:43:09;;;;;;;10.87;9.87;;;18.00;99.90;;;;;;5025042;28;20308;-57
2023/06/11 01:45:38;;;;;;;10.90;10.10;;;18.00;99.90;;;;;;5033665;28;20253;-58
2023/06/11 01:48:06;;;;;;;9.93;9.10;;;18.00;99.90;;;;;;5033803;28;20210;-57
2023/06/11 01:50:33;;;;;;;9.40;8.67;;;18.20;99.90;;;;;;5032893;28;20616;-57
2023/06/11 01:53:00;;;;;;;10.40;9.53;;;18.00;99.90;;;;;;5024785;28;20214;-58
2023/06/11 01:55:27;;;;;;;8.90;8.20;;;18.00;99.90;;;;;;5029880;28;20202;-57
2023/06/11 01:57:54;;;;;;;10.30;9.37;;;17.90;99.90;;;;;;5032317;28;20203;-59
2023/06/11 02:00:21;;;;;;;10.10;9.40;;;17.90;99.90;;;;;;5033458;28;20198;-57
2023/06/11 02:02:50;;;;;;;9.63;8.97;;;17.90;99.90;;;;;;5033181;28;20202;-58
2023/06/11 02:05:17;;;;;;;10.33;9.53;;;17.80;99.90;;;;;;5031518;28;20206;-58
2023/06/11 02:07:45;;;;;;;9.07;8.47;;;17.80;99.90;;;;;;5032235;28;20302;-59
2023/06/11 02:10:12;;;;;;;9.13;8.43;;;17.80;99.90;;;;;;5032539;28;20238;-58
2023/06/11 02:12:39;;;;;;;9.90;9.17;;;17.80;99.90;;;;;;5032863;28;20302;-57
2023/06/11 02:15:08;;;;;;;10.60;9.50;;;17.70;99.90;;;;;;5033246;28;20614;-57
2023/06/11 02:17:35;;;;;;;10.07;9.37;;;17.70;99.90;;;;;;5033072;28;20203;-57
2023/06/11 02:20:05;;;;;;;10.20;9.30;;;17.60;99.90;;;;;;5031185;28;20260;-58
2023/06/11 02:22:33;;;;;;;8.73;8.13;;;17.50;99.90;;;;;;5032902;28;20222;-57
2023/06/11 02:25:00;;;;;;;10.83;9.80;;;17.50;99.90;;;;;;5032097;28;20240;-57
2023/06/11 02:27:27;;;;;;;11.33;10.30;;;17.40;99.90;;;;;;5032823;28;20676;-58
2023/06/11 02:29:55;;;;;;;9.50;8.80;;;17.40;99.90;;;;;;5033000;28;20202;-58
2023/06/11 02:32:22;;;;;;;9.33;8.73;;;17.40;99.90;;;;;;5030619;28;20229;-57
2023/06/11 02:34:49;;;;;;;9.30;8.70;;;17.40;99.90;;;;;;5032670;28;20345;-58
2023/06/11 02:37:17;;;;;;;9.87;8.80;;;17.50;99.90;;;;;;5032710;28;20249;-58
2023/06/11 02:39:44;;;;;;;10.63;9.83;;;17.50;99.90;;;;;;5031940;28;20202;-58
2023/06/11 02:42:14;;;;;;;9.23;8.53;;;17.40;99.90;;;;;;5031484;28;20253;-57
2023/06/11 02:44:41;;;;;;;9.47;8.67;;;17.40;99.90;;;;;;5032837;28;20272;-57
2023/06/11 02:47:08;;;;;;;11.67;10.83;;;17.40;99.90;;;;;;5032615;28;20257;-58
2023/06/11 02:49:35;;;;;;;10.83;9.93;;;17.40;99.90;;;;;;5032847;28;20257;-57
2023/06/11 02:52:02;;;;;;;9.87;9.17;;;17.30;99.90;;;;;;5032494;28;20276;-58
2023/06/11 02:54:31;;;;;;;10.73;9.73;;;17.30;99.90;;;;;;5023065;28;20292;-58
2023/06/11 02:56:58;;;;;;;10.23;9.53;;;17.30;99.90;;;;;;5032389;28;20620;-58
2023/06/11 02:59:24;;;;;;;10.60;9.60;;;17.30;99.90;;;;;;5032349;28;20203;-57
2023/06/11 03:01:51;;;;;;;11.73;10.73;;;17.30;99.90;;;;;;5032254;28;20202;-58
2023/06/11 03:04:18;;;;;;;9.27;8.60;;;17.30;99.90;;;;;;5032180;28;20786;-58
2023/06/11 03:06:45;;;;;;;9.90;9.10;;;17.30;99.90;;;;;;5032622;28;20261;-58
2023/06/11 03:09:12;;;;;;;11.53;10.53;;;17.30;99.90;;;;;;5025780;28;20624;-57
2023/06/11 03:11:40;;;;;;;9.57;8.87;;;17.20;99.90;;;;;;5032166;28;20194;-57
2023/06/11 03:14:07;;;;;;;10.23;9.43;;;17.20;99.90;;;;;;5031984;28;20700;-57
2023/06/11 03:16:34;;;;;;;10.63;9.90;;;17.20;99.90;;;;;;5032510;28;20206;-59
2023/06/11 03:19:01;;;;;;;11.53;10.50;;;17.20;99.90;;;;;;5032292;28;20281;-57
2023/06/11 03:21:28;;;;;;;10.93;10.13;;;17.20;99.90;;;;;;5031965;28;20659;-59
2023/06/11 03:23:55;;;;;;;9.63;8.83;;;17.20;99.90;;;;;;5030788;28;20316;-58
2023/06/11 03:26:24;;;;;;;10.13;9.40;;;17.20;99.90;;;;;;5031909;28;20202;-58
2023/06/11 03:28:53;;;;;;;9.13;8.53;;;17.10;99.90;;;;;;5031883;28;20206;-58
2023/06/11 03:31:20;;;;;;;10.17;9.47;;;17.10;99.90;;;;;;5032067;28;20210;-58
2023/06/11 03:33:47;;;;;;;9.33;8.60;;;17.10;99.90;;;;;;5031669;28;20312;-58
2023/06/11 03:36:14;;;;;;;10.57;9.87;;;17.10;99.90;;;;;;5031074;28;20329;-58
2023/06/11 03:38:41;;;;;;;9.70;9.00;;;17.10;99.90;;;;;;5031292;28;20217;-58
2023/06/11 03:41:10;;;;;;;10.17;9.47;;;17.10;99.90;;;;;;5031638;28;20623;-58
2023/06/11 03:43:37;;;;;;;10.27;9.37;;;17.10;99.90;;;;;;5031453;28;20316;-59
2023/06/11 03:46:05;;;;;;;10.87;9.77;;;17.10;99.90;;;;;;5031807;28;20260;-58
2023/06/11 03:48:32;;;;;;;9.50;8.70;;;17.20;99.90;;;;;;5031729;28;20253;-57
2023/06/11 03:50:59;;;;;;;9.27;8.67;;;17.10;99.90;;;;;;5029409;28;20265;-57
2023/06/11 03:53:26;;;;;;;8.63;8.07;;;17.20;99.90;;;;;;5030597;28;20762;-58
2023/06/11 03:55:53;;;;;;;9.73;8.83;;;17.20;99.90;;;;;;5031283;28;20731;-58
2023/06/11 03:58:21;;;;;;;9.37;8.70;;;17.10;99.90;;;;;;5031631;28;20198;-58
2023/06/11 04:00:48;;;;;;;9.80;9.00;;;17.20;99.90;;;;;;5031207;28;20790;-59
2023/06/11 04:03:16;;;;;;;10.53;9.63;;;17.20;99.90;;;;;;5031232;28;20300;-58
2023/06/11 04:05:43;;;;;;;9.03;8.23;;;17.20;99.90;;;;;;5030705;28;20245;-58
2023/06/11 04:08:10;;;;;;;8.37;7.67;;;17.20;99.90;;;;;;5031233;28;20619;-59
2023/06/11 04:10:37;;;;;;;7.43;7.00;;;17.30;99.90;;;;;;5031172;28;20268;-57
2023/06/11 04:13:04;;;;;;;12.17;9.87;;;17.30;99.90;;;;;;5030805;28;20314;-59
2023/06/11 04:15:31;;;;;;;9.37;8.67;;;17.30;99.90;;;;;;5031115;28;20206;-58
2023/06/11 04:17:58;;;;;;;8.97;8.27;;;17.40;99.90;;;;;;5029422;28;20264;-58
2023/06/11 04:20:27;;;;;;;9.27;8.47;;;17.40;99.90;;;;;;5030274;28;20665;-57
2023/06/11 04:22:54;;;;;;;8.70;8.00;;;17.50;99.90;;;;;;5030464;28;20280;-58
2023/06/11 04:25:21;;;;;;;8.00;7.50;;;17.70;99.90;;;;;;5031284;28;20582;-58
2023/06/11 04:27:49;;;;;;;8.43;7.83;;;17.90;99.90;;;;;;5030105;28;20210;-57
2023/06/11 04:30:16;;;;;;;7.43;6.93;;;18.10;99.90;;;;;;5030251;28;20233;-58
2023/06/11 04:32:43;;;;;;;9.53;8.63;;;18.00;99.90;;;;;;5030543;28;20557;-58
2023/06/11 04:35:11;;;;;;;7.97;7.37;;;18.00;99.90;;;;;;5030373;28;20253;-57
2023/06/11 04:37:40;;;;;;;9.87;8.97;;;18.10;99.90;;;;;;5030761;28;20276;-57
2023/06/11 04:40:10;;;;;;;9.20;8.40;;;18.10;99.90;;;;;;5029357;28;20207;-59
2023/06/11 04:42:40;;;;;;;8.50;7.90;;;18.20;99.90;;;;;;5030761;28;20214;-58
2023/06/11 04:45:09;;;;;;;7.97;7.40;;;18.20;99.90;;;;;;5030758;28;20716;-59
2023/06/11 04:47:36;;;;;;;8.73;8.13;;;18.30;99.90;;;;;;5030152;28;20207;-58
2023/06/11 04:50:05;;;;;;;9.10;8.33;;;18.40;99.90;;;;;;5028090;28;20694;-59
2023/06/11 04:52:34;;;;;;;9.97;9.27;;;18.50;99.90;;;;;;5030771;28;20210;-58
2023/06/11 04:55:03;;;;;;;8.90;8.20;;;18.50;99.90;;;;;;5030782;28;20237;-58
2023/06/11 04:57:32;;;;;;;11.30;10.20;;;18.60;99.90;;;;;;5030750;28;20742;-58
2023/06/11 05:00:00;;;;;;;9.73;9.03;;;18.70;99.90;;;;;;5023517;28;20207;-57
2023/06/11 05:02:27;;;;;;;11.77;10.67;;;18.70;99.90;;;;;;5028634;28;20203;-59
2023/06/11 05:04:54;;;;;;;12.50;11.47;;;18.90;99.90;;;;;;5021450;28;20332;-59
2023/06/11 05:07:23;;;;;;;10.30;9.47;;;18.90;99.90;;;;;;5027860;28;20209;-58
2023/06/11 05:09:51;;;;;;;12.07;11.00;;;19.20;99.90;;;;;;5030171;28;20203;-59
2023/06/11 05:12:19;;;;;;;11.00;10.13;;;19.40;99.90;;;;;;5030344;28;20202;-59
2023/06/11 05:14:46;;;;;;;14.17;11.30;;;19.80;99.90;;;;;;5029457;28;20231;-58
2023/06/11 05:17:16;;;;;;;11.73;10.83;;;20.30;99.90;;;;;;5030392;28;20207;-58
2023/06/11 05:19:44;;;;;;;11.20;10.30;;;20.90;99.90;;;;;;5027650;28;20231;-57
2023/06/11 05:22:14;;;;;;;11.40;10.50;;;21.70;99.90;;;;;;5010731;28;20262;-58
2023/06/11 05:24:42;;;;;;;10.23;9.57;;;22.60;99.90;;;;;;5012763;28;20678;-58
2023/06/11 05:27:09;;;;;;;11.27;10.13;;;23.00;99.90;;;;;;5030244;28;20211;-58
2023/06/11 05:29:38;;;;;;;10.60;9.80;;;23.60;99.90;;;;;;5030624;28;20294;-58
2023/06/11 05:32:08;;;;;;;10.93;10.17;;;24.50;99.90;;;;;;5028512;28;20201;-58
2023/06/11 05:34:37;;;;;;;10.47;9.70;;;24.80;99.90;;;;;;5028482;28;20280;-58
2023/06/11 05:37:04;;;;;;;9.93;9.17;;;25.00;99.90;;;;;;5023445;28;20199;-58
2023/06/11 05:39:31;;;;;;;9.57;8.73;;;25.40;99.90;;;;;;5022558;28;20272;-58
2023/06/11 05:41:58;;;;;;;10.07;9.37;;;26.20;99.90;;;;;;5030495;28;20204;-58
2023/06/11 05:44:25;;;;;;;7.13;6.70;;;26.50;99.90;;;;;;5029793;28;20246;-59
2023/06/11 05:46:53;;;;;;;7.03;6.63;;;26.60;99.90;;;;;;5028155;28;20273;-58
2023/06/11 05:49:20;;;;;;;8.07;7.57;;;27.10;99.90;;;;;;5033753;28;20743;-58
2023/06/11 05:51:47;;;;;;;7.93;7.33;;;27.30;99.90;;;;;;5033513;28;20198;-58
2023/06/11 05:54:14;;;;;;;8.03;7.33;;;27.60;99.90;;;;;;5032858;28;20250;-58
2023/06/11 05:56:41;;;;;;;7.70;7.20;;;26.90;99.90;;;;;;5033748;28;20199;-59
2023/06/11 05:59:08;;;;;;;6.93;6.63;;;27.40;99.90;;;;;;5033457;28;20242;-58
2023/06/11 06:01:36;;;;;;;7.73;7.23;;;27.30;99.90;;;;;;5025262;28;20206;-57
2023/06/11 06:04:05;;;;;;;7.70;7.10;;;26.50;99.90;;;;;;5032367;28;20645;-59
2023/06/11 06:06:32;;;;;;;6.43;6.00;;;26.80;99.90;;;;;;5079788;23;20230;-53
2023/06/11 06:08:59;;;;;;;7.20;6.80;;;27.20;99.90;;;;;;5107290;28;20200;-53
2023/06/11 06:11:26;;;;;;;6.63;6.33;;;26.90;99.90;;;;;;5107491;28;20200;-53
2023/06/11 06:13:53;;;;;;;6.13;5.73;;;27.50;99.90;;;;;;5109459;28;20216;-53
2023/06/11 06:16:20;;;;;;;6.40;6.10;;;28.40;99.90;;;;;;5098848;28;20570;-53
2023/06/11 06:18:47;;;;;;;6.27;5.87;;;28.50;99.90;;;;;;5088997;28;20205;-53
2023/06/11 06:21:15;;;;;;;7.00;6.70;;;28.70;99.90;;;;;;5099398;28;20254;-53
2023/06/11 06:23:42;;;;;;;7.00;6.40;;;29.00;99.90;;;;;;5091900;28;20253;-53
2023/06/11 06:26:09;;;;;;;5.97;5.70;;;28.80;99.90;;;;;;5090975;28;20285;-53
2023/06/11 06:28:36;;;;;;;6.82;6.40;;;28.50;99.90;;;;;;5088227;28;20200;-53
2023/06/11 06:31:07;;;;;;;7.80;7.30;;;27.90;99.90;;;;;;5091457;28;20262;-53
2023/06/11 06:33:37;;;;;;;6.60;6.23;;;26.90;99.90;;;;;;5092037;28;20201;-53
2023/06/11 06:36:05;;;;;;;6.43;6.07;;;27.30;99.90;;;;;;5086646;28;20224;-53
2023/06/11 06:38:35;;;;;;;5.77;5.47;;;27.30;99.90;;;;;;5087975;28;20200;-53
2023/06/11 06:41:02;;;;;;;6.97;6.43;;;27.70;99.90;;;;;;5092597;28;20246;-53
2023/06/11 06:43:29;;;;;;;6.72;6.40;;;28.80;99.90;;;;;;5091208;28;20750;-53
2023/06/11 06:45:56;;;;;;;6.00;5.60;;;29.60;99.90;;;;;;5092822;28;20300;-53
2023/06/11 06:48:23;;;;;;;6.88;6.57;;;29.00;99.90;;;;;;5091093;28;20193;-53
2023/06/11 06:50:51;;;;;;;6.60;6.22;;;29.10;99.90;;;;;;5090774;28;20258;-53
2023/06/11 06:53:17;;;;;;;6.60;6.30;;;29.40;99.90;;;;;;5087621;28;20222;-53
2023/06/11 06:55:46;;;;;;;5.97;5.57;;;29.40;99.90;;;;;;5098761;28;20247;-53
2023/06/11 06:58:13;;;;;;;7.40;6.80;;;29.10;99.90;;;;;;5083846;28;20232;-53
2023/06/11 07:00:40;;;;;;;6.80;6.50;;;29.90;99.90;;;;;;5092454;28;20208;-53
2023/06/11 07:03:09;;;;;;;6.93;6.53;;;30.60;99.90;;;;;;5087585;28;20192;-53
2023/06/11 07:05:36;;;;;;;6.90;6.50;;;30.20;99.90;;;;;;5099035;28;20670;-53
2023/06/11 07:08:03;;;;;;;6.78;6.47;;;30.30;99.90;;;;;;5091862;28;20205;-53
2023/06/11 07:10:31;;;;;;;6.53;6.13;;;30.50;99.90;;;;;;5092760;28;20291;-53
2023/06/11 07:12:59;;;;;;;6.93;6.53;;;31.30;99.90;;;;;;5090344;28;20287;-53
2023/06/11 07:15:26;;;;;;;5.97;5.65;;;31.00;99.90;;;;;;5095224;28;20219;-53
2023/06/11 07:17:53;;;;;;;6.95;6.65;;;31.10;99.90;;;;;;5090311;28;20196;-53
2023/06/11 07:20:20;;;;;;;6.95;6.45;;;31.50;99.90;;;;;;5089672;28;20258;-53
2023/06/11 07:22:47;;;;;;;8.27;7.82;;;31.20;99.90;;;;;;5085503;28;20200;-53
2023/06/11 07:25:15;;;;;;;8.18;7.80;;;31.20;99.90;;;;;;5095030;28;20196;-53
2023/06/11 07:27:42;;;;;;;8.18;7.68;;;30.80;99.90;;;;;;5091811;28;20251;-53
2023/06/11 07:30:12;;;;;;;8.98;8.38;;;30.20;99.90;;;;;;5090524;28;20628;-53
2023/06/11 07:32:39;;;;;;;9.48;8.98;;;30.00;99.90;;;;;;5091452;28;20665;-53
2023/06/11 07:35:06;;;;;;;8.82;8.32;;;29.60;99.90;;;;;;5095656;28;20610;-53
2023/06/11 07:37:33;;;;;;;10.15;9.48;;;29.10;99.90;;;;;;5091104;28;20220;-53
2023/06/11 07:40:00;;;;;;;10.35;9.75;;;29.00;99.90;;;;;;5091638;28;20208;-53
2023/06/11 07:42:27;;;;;;;9.85;9.10;;;29.40;99.90;;;;;;5091363;28;20207;-53
2023/06/11 07:44:54;;;;;;;10.63;9.88;;;29.30;99.90;;;;;;5081269;28;20597;-53
2023/06/11 07:47:24;;;;;;;9.65;8.73;;;29.10;99.90;;;;;;5090292;28;20750;-53
2023/06/11 07:49:51;;;;;;;8.23;7.72;;;29.20;99.90;;;;;;5088631;28;20212;-53
2023/06/11 07:52:18;;;;;;;9.85;9.15;;;28.90;99.90;;;;;;5090518;28;20289;-53
2023/06/11 07:54:45;;;;;;;8.40;7.63;;;28.50;99.90;;;;;;5092776;28;20285;-53
2023/06/11 07:57:12;;;;;;;9.27;8.45;;;28.80;99.90;;;;;;5091464;28;20307;-53
2023/06/11 07:59:42;;;;;;;9.73;9.02;;;28.30;99.90;;;;;;5088269;28;20596;-64
2023/06/11 08:02:09;;;;;;;7.88;7.47;;;28.10;99.90;;;;;;5087774;28;20663;-65
2023/06/11 08:04:38;;;;;;;8.73;8.13;;;28.50;99.90;;;;;;5089694;28;20197;-67
2023/06/11 08:07:05;;;;;;;9.93;9.13;;;29.40;99.90;;;;;;5086762;28;20221;-65
2023/06/11 08:09:35;;;;;;;8.88;8.27;;;29.20;99.90;;;;;;5071964;28;20201;-65
2023/06/11 08:12:02;;;;;;;8.63;7.80;;;29.70;99.90;;;;;;5082462;28;20201;-66
2023/06/11 08:14:30;;;;;;;8.50;8.00;;;30.30;99.90;;;;;;5078891;28;20222;-66
2023/06/11 08:16:57;;;;;;;8.80;8.15;;;29.90;99.90;;;;;;5082933;28;20271;-65
2023/06/11 08:19:24;;;;;;;9.07;8.45;;;29.90;99.90;;;;;;5091951;28;20204;-67
2023/06/11 08:21:52;;;;;;;8.80;8.25;;;30.00;99.90;;;;;;5091630;28;20246;-66
2023/06/11 08:24:21;;;;;;;8.45;7.95;;;29.90;99.90;;;;;;5085976;28;20734;-66
2023/06/11 08:26:48;;;;;;;10.77;9.98;;;29.50;99.90;;;;;;5089543;28;20307;-68
2023/06/11 08:29:15;;;;;;;8.82;8.13;;;28.80;99.90;;;;;;5088156;28;20747;-73
2023/06/11 08:31:42;;;;;;;9.35;8.75;;;28.90;99.90;;;;;;5073847;28;20633;-72
2023/06/11 08:34:09;;;;;;;9.38;8.68;;;29.40;99.90;;;;;;5090842;28;20200;-54
2023/06/11 08:36:36;;;;;;;9.50;8.90;;;28.90;99.90;;;;;;5093517;28;20217;-69
2023/06/11 08:39:05;;;;;;;8.75;8.23;;;28.80;99.90;;;;;;5086805;28;20196;-65
2023/06/11 08:41:32;;;;;;;8.82;8.23;;;29.20;99.90;;;;;;5086679;28;20205;-66
2023/06/11 08:43:59;;;;;;;9.20;8.60;;;29.40;99.90;;;;;;5070945;28;20228;-66
2023/06/11 08:46:26;;;;;;;8.63;7.95;;;29.70;99.90;;;;;;5082911;28;20274;-68
2023/06/11 08:48:58;;;;;;;8.50;7.97;;;29.80;99.90;;;;;;5083751;28;20268;-71
2023/06/11 08:51:28;;;;;;;9.90;9.00;;;30.10;99.90;;;;;;5091512;28;20211;-67
2023/06/11 08:53:55;;;;;;;8.07;7.43;;;30.60;99.90;;;;;;5091102;28;20365;-66
2023/06/11 08:56:26;;;;;;;8.30;7.80;;;30.50;99.90;;;;;;5096016;28;20307;-69
2023/06/11 08:58:54;;;;;;;9.00;8.23;;;31.00;99.90;;;;;;5097337;28;20208;-71
2023/06/11 09:01:23;;;;;;;8.20;7.80;;;31.00;99.90;;;;;;5077651;28;20565;-66
2023/06/11 09:03:50;;;;;;;9.18;8.57;;;30.80;99.90;;;;;;5091300;28;20287;-55
2023/06/11 09:06:18;;;;;;;9.15;8.52;;;30.00;99.90;;;;;;5081553;28;20225;-62
2023/06/11 09:08:57;;;;;;;8.57;7.95;;;29.60;99.90;;;;;;5081854;28;20208;-54
2023/06/11 09:11:31;;;;;;;8.75;8.15;;;29.90;99.90;;;;;;5088640;28;20564;-55
2023/06/11 09:13:58;;;;;;;8.52;7.93;;;30.10;99.90;;;;;;5081221;28;20208;-55
2023/06/11 09:16:25;;;;;;;8.32;7.90;;;30.80;99.90;;;;;;5085618;28;20219;-55
2023/06/11 09:18:52;;;;;;;8.48;7.97;;;30.70;99.90;;;;;;5090848;28;20200;-55
2023/06/11 09:21:19;;;;;;;8.05;7.55;;;30.90;99.90;;;;;;5094882;28;20673;-55
2023/06/11 09:23:46;;;;;;;8.32;7.90;;;30.80;99.90;;;;;;5097850;28;20257;-55
2023/06/11 09:26:18;;;;;;;8.50;7.90;;;31.30;99.90;;;;;;5082147;28;20220;-55
2023/06/11 09:28:47;;;;;;;8.15;7.65;;;31.80;99.90;;;;;;5074580;28;20671;-55
2023/06/11 09:31:18;;;;;;;9.00;8.27;;;31.70;99.90;;;;;;5089830;28;20298;-55
2023/06/11 09:33:46;;;;;;;8.70;8.23;;;32.00;99.90;;;;;;5089877;28;20190;-55
2023/06/11 09:36:12;;;;;;;8.82;8.32;;;31.70;99.90;;;;;;5094592;28;20262;-54
2023/06/11 09:38:40;;;;;;;8.98;8.25;;;30.70;99.90;;;;;;5094733;28;20200;-54
2023/06/11 09:41:07;;;;;;;8.45;8.05;;;30.50;99.90;;;;;;5091224;28;20192;-54
2023/06/11 09:43:35;;;;;;;9.05;8.45;;;31.10;99.90;;;;;;5093942;28;20197;-55
2023/06/11 09:46:03;;;;;;;9.80;9.20;;;30.60;99.90;;;;;;5094474;28;20311;-54
2023/06/11 09:48:30;;;;;;;9.43;8.93;;;30.70;99.90;;;;;;5093787;28;20258;-55
2023/06/11 09:51:00;;;;;;;9.48;8.95;;;30.40;99.90;;;;;;5100034;28;20215;-55
2023/06/11 09:53:28;;;;;;;7.63;7.18;;;29.40;99.90;;;;;;5087891;28;20244;-55
2023/06/11 09:55:56;;;;;;;8.10;7.43;;;29.90;99.90;;;;;;5074039;28;20306;-54
2023/06/11 09:58:24;;;;;;;8.00;7.60;;;30.30;99.90;;;;;;5090750;28;20287;-54
2023/06/11 10:00:52;;;;;;;8.23;7.63;;;30.80;99.90;;;;;;5101094;28;20208;-54
2023/06/11 10:03:21;;;;;;;8.30;7.85;;;31.10;99.90;;;;;;5087987;28;20658;-55
2023/06/11 10:05:48;;;;;;;7.93;7.38;;;30.90;99.90;;;;;;5077969;28;20225;-54
2023/06/11 10:08:20;;;;;;;7.90;7.40;;;31.30;99.90;;;;;;5085933;28;20251;-55
2023/06/11 10:10:51;;;;;;;8.70;8.07;;;31.40;99.90;;;;;;5074125;28;20208;-55
2023/06/11 10:13:28;;;;;;;7.97;7.57;;;31.50;99.90;;;;;;5082834;28;20270;-55
2023/06/11 10:15:55;;;;;;;7.45;6.93;;;31.40;99.90;;;;;;5093413;28;20238;-55
2023/06/11 10:18:25;;;;;;;7.63;7.13;;;31.50;99.90;;;;;;5093486;28;20188;-57
2023/06/11 10:20:53;;;;;;;7.72;7.22;;;31.80;99.90;;;;;;5075407;28;20251;-55
2023/06/11 10:23:20;;;;;;;7.38;6.97;;;31.30;99.90;;;;;;5075579;28;20613;-55
2023/06/11 10:25:54;;;;;;;8.45;7.68;;;31.40;99.90;;;;;;5082540;28;20279;-55
2023/06/11 10:28:23;;;;;;;8.88;8.18;;;31.60;99.90;;;;;;5084024;28;20211;-55
2023/06/11 10:30:54;;;;;;;8.10;7.50;;;30.60;99.90;;;;;;5092063;28;20668;-55
2023/06/11 10:33:35;;;;;;;7.88;7.38;;;30.40;99.90;;;;;;5092709;28;20218;-55
2023/06/11 10:36:02;;;;;;;8.32;7.90;;;30.50;99.90;;;;;;5090438;28;20298;-54
2023/06/11 10:38:30;;;;;;;8.00;7.43;;;30.40;99.90;;;;;;5089698;28;20200;-55
2023/06/11 10:41:03;;;;;;;7.10;6.68;;;30.70;99.90;;;;;;5090452;28;20196;-55
2023/06/11 10:43:32;;;;;;;6.32;6.13;;;31.10;99.90;;;;;;5092940;28;20693;-62
2023/06/11 10:46:03;;;;;;;7.50;7.05;;;31.30;99.90;;;;;;5089889;28;20252;-66
2023/06/11 10:48:32;;;;;;;7.00;6.50;;;31.20;99.90;;;;;;5090323;28;20215;-65
2023/06/11 10:51:02;;;;;;;7.68;7.32;;;30.30;99.90;;;;;;5075531;28;20265;-60
2023/06/11 10:53:37;;;;;;;7.45;7.05;;;30.30;99.90;;;;;;5084386;28;20336;-59
2023/06/11 10:56:04;;;;;;;6.72;6.32;;;30.20;99.90;;;;;;5091329;28;20281;-59
2023/06/11 10:58:33;;;;;;;6.20;5.90;;;30.10;99.90;;;;;;5092398;28;20200;-61
2023/06/11 11:01:00;;;;;;;6.30;6.00;;;30.20;99.90;;;;;;5090636;28;20274;-63
2023/06/11 11:03:29;;;;;;;6.75;6.45;;;29.90;99.90;;;;;;5085736;28;20255;-61
2023/06/11 11:05:58;;;;;;;7.28;6.88;;;29.80;99.90;;;;;;5090505;28;20316;-62
2023/06/11 11:08:25;;;;;;;7.63;7.18;;;29.50;99.90;;;;;;5084254;28;20201;-69
2023/06/11 11:10:56;;;;;;;7.30;6.72;;;29.20;99.90;;;;;;5090276;28;20196;-66
2023/06/11 11:13:23;;;;;;;6.78;6.47;;;29.40;99.90;;;;;;5087119;28;20196;-67
2023/06/11 11:15:51;;;;;;;5.57;5.35;;;29.50;99.90;;;;;;5090565;28;20270;-67
2023/06/11 11:18:18;;;;;;;6.45;6.18;;;29.20;99.90;;;;;;5087067;28;20201;-69
2023/06/11 11:20:45;;;;;;;5.88;5.68;;;29.10;99.90;;;;;;5083451;28;20661;-65
2023/06/11 11:23:14;;;;;;;6.30;5.90;;;28.70;99.90;;;;;;5087889;28;20283;-66
2023/06/11 11:25:42;;;;;;;5.28;5.03;;;28.50;99.90;;;;;;5085336;28;20192;-66
2023/06/11 11:28:12;;;;;;;6.55;5.93;;;28.00;99.90;;;;;;5092923;28;20224;-67
2023/06/11 11:30:39;;;;;;;5.55;5.32;;;28.10;99.90;;;;;;5091344;28;20200;-65
2023/06/11 11:33:06;;;;;;;5.32;5.00;;;28.30;99.90;;;;;;5088590;28;20205;-63
2023/06/11 11:35:33;;;;;;;4.80;4.60;;;28.40;99.90;;;;;;5085464;28;20220;-66
2023/06/11 11:38:00;;;;;;;6.00;5.50;;;28.30;99.90;;;;;;5083730;28;20251;-65
2023/06/11 11:40:29;;;;;;;5.45;5.22;;;28.30;99.90;;;;;;5091708;28;20269;-64
2023/06/11 11:42:57;;;;;;;5.35;5.05;;;28.30;99.90;;;;;;5087338;28;20192;-63
2023/06/11 11:45:31;;;;;;;5.43;5.13;;;28.30;99.90;;;;;;5090574;28;20254;-64
2023/06/11 11:47:58;;;;;;;4.88;4.68;;;28.30;99.90;;;;;;5081665;28;20282;-63
2023/06/11 11:50:27;;;;;;;3.90;3.72;;;28.00;99.90;;;;;;5072070;28;20200;-66
2023/06/11 11:53:04;;;;;;;4.90;4.70;;;28.30;99.90;;;;;;5071806;28;20682;-62
2023/06/11 11:55:34;;;;;;;5.57;5.35;;;28.40;99.90;;;;;;5076945;28;20224;-63
2023/06/11 11:58:06;;;;;;;5.28;4.93;;;28.40;99.90;;;;;;5092387;28;20246;-65
2023/06/11 12:00:34;;;;;;;5.50;5.10;;;28.50;99.90;;;;;;5091329;28;20582;-65
2023/06/11 12:03:07;;;;;;;4.60;4.50;;;28.60;99.90;;;;;;5089612;28;20192;-65
2023/06/11 12:05:35;;;;;;;5.40;5.20;;;28.50;99.90;;;;;;5083952;28;20207;-54
2023/06/11 12:08:02;;;;;;;6.43;4.82;;;28.40;99.90;;;;;;5109283;22;20220;-64
2023/06/11 12:10:32;;;;;;;5.47;5.18;;;28.20;99.90;;;;;;5083566;28;20196;-65
2023/06/11 12:13:00;;;;;;;4.97;4.63;;;27.80;99.90;;;;;;5087844;28;20196;-64
2023/06/11 12:15:26;;;;;;;5.18;4.97;;;27.80;99.90;;;;;;5085195;28;20197;-66
2023/06/11 12:17:54;;;;;;;5.10;4.88;;;27.90;99.90;;;;;;5085298;28;20232;-65
2023/06/11 12:20:22;;;;;;;5.38;5.10;;;27.70;99.90;;;;;;5090757;28;20257;-65
2023/06/11 12:22:49;;;;;;;5.30;5.05;;;27.50;99.90;;;;;;5088955;28;20351;-65
2023/06/11 12:25:17;;;;;;;5.07;4.88;;;27.30;99.90;;;;;;5081802;28;20192;-65
2023/06/11 12:27:45;;;;;;;5.28;5.13;;;27.20;99.90;;;;;;5087110;28;20693;-65
2023/06/11 12:30:13;;;;;;;5.07;4.88;;;27.40;99.90;;;;;;5079614;28;20255;-65
2023/06/11 12:32:40;;;;;;;5.55;5.20;;;27.40;99.90;;;;;;5088957;28;20480;-66
2023/06/11 12:35:08;;;;;;;5.07;4.88;;;27.40;99.90;;;;;;5082396;28;20223;-63
2023/06/11 12:37:36;;;;;;;5.15;4.95;;;27.40;99.90;;;;;;5088693;28;20315;-64
2023/06/11 12:40:04;;;;;;;4.95;4.55;;;27.60;99.90;;;;;;5077149;28;20203;-65
2023/06/11 12:42:32;;;;;;;4.50;4.30;;;27.70;99.90;;;;;;5074299;28;20200;-63
2023/06/11 12:45:00;;;;;;;4.68;4.57;;;27.60;99.90;;;;;;5090836;28;20242;-58
2023/06/11 12:47:27;;;;;;;5.82;5.47;;;27.70;99.90;;;;;;5090571;28;20597;-61
2023/06/11 12:49:54;;;;;;;5.90;5.50;;;27.70;99.90;;;;;;5092032;28;20208;-61